Time;durP1;ratioP1;P1;durP2;ratioP2;P2;SDS_P1;SDS_P2;PMS_P1;PMS_P2;Temp;Humidity;BMP_temperature;BMP_pressure;BME280_temperature;BME280_humidity;BME280_pressure;Samples;Min_cycle;Max_cycle;Signal;HPM_P1;HPM_P2
2022/04/17 00:00:14;;;;;;;0.60;0.60;;;1.50;99.90;;;;;;4958471;28;20255;-86
2022/04/17 00:02:40;;;;;;;0.70;0.70;;;1.40;99.90;;;;;;4951490;29;20224;-87
2022/04/17 00:05:06;;;;;;;0.70;0.70;;;1.30;99.90;;;;;;4956694;28;20189;-86
2022/04/17 00:07:33;;;;;;;0.63;0.63;;;1.20;99.90;;;;;;4947268;28;20196;-86
2022/04/17 00:10:00;;;;;;;0.63;0.63;;;1.20;99.90;;;;;;4993224;28;20243;-86
2022/04/17 00:12:26;;;;;;;0.70;0.70;;;1.20;99.90;;;;;;4996092;28;20199;-87
2022/04/17 00:14:56;;;;;;;0.70;0.70;;;1.00;99.90;;;;;;4980791;28;20207;-87
2022/04/17 00:17:22;;;;;;;0.68;0.68;;;1.00;99.90;;;;;;4997310;28;20283;-86
2022/04/17 00:19:48;;;;;;;0.70;0.70;;;0.90;99.90;;;;;;4997285;28;20566;-86
2022/04/17 00:22:14;;;;;;;0.60;0.60;;;0.90;99.90;;;;;;4995639;28;20211;-87
2022/04/17 00:24:40;;;;;;;2.17;0.93;;;0.80;99.90;;;;;;4961757;28;20207;-87
2022/04/17 00:27:06;;;;;;;0.70;0.70;;;0.70;99.90;;;;;;4976905;28;20196;-87
2022/04/17 00:29:32;;;;;;;0.70;0.70;;;0.60;99.90;;;;;;4960942;28;20670;-87
2022/04/17 00:31:58;;;;;;;0.63;0.63;;;0.60;99.90;;;;;;4961469;28;20197;-86
2022/04/17 00:34:24;;;;;;;0.77;0.77;;;0.60;99.90;;;;;;4977487;28;20200;-86
2022/04/17 00:36:50;;;;;;;0.70;0.70;;;0.50;99.90;;;;;;4977414;28;20204;-87
2022/04/17 00:39:16;;;;;;;0.60;0.60;;;0.40;99.90;;;;;;4977580;28;20200;-86
2022/04/17 00:41:42;;;;;;;0.60;0.60;;;0.40;99.90;;;;;;4978626;28;20196;-85
2022/04/17 00:44:12;;;;;;;0.68;0.68;;;0.30;99.90;;;;;;4961270;28;20628;-86
2022/04/17 00:46:40;;;;;;;0.70;0.70;;;0.30;99.90;;;;;;4977519;28;20196;-87
2022/04/17 00:49:09;;;;;;;0.60;0.60;;;0.30;99.90;;;;;;4961259;28;20255;-86
2022/04/17 00:51:36;;;;;;;0.60;0.60;;;0.30;99.90;;;;;;4961143;28;20199;-86
2022/04/17 00:54:03;;;;;;;0.77;0.77;;;0.30;99.90;;;;;;4978328;28;20250;-86
2022/04/17 00:56:31;;;;;;;0.55;0.55;;;0.30;99.90;;;;;;4978034;28;20207;-86
2022/04/17 00:58:57;;;;;;;0.70;0.70;;;0.30;99.90;;;;;;4978476;28;20651;-86
2022/04/17 01:01:24;;;;;;;0.77;0.77;;;0.30;99.90;;;;;;4977038;28;20281;-85
2022/04/17 01:03:50;;;;;;;0.60;0.60;;;0.20;99.90;;;;;;4975835;28;20210;-86
2022/04/17 01:06:17;;;;;;;0.55;0.55;;;0.20;99.90;;;;;;4977905;28;20564;-86
2022/04/17 01:08:42;;;;;;;0.70;0.70;;;0.20;99.90;;;;;;4976772;28;20196;-86
2022/04/17 01:11:12;;;;;;;0.70;0.70;;;0.10;99.90;;;;;;4977985;28;20215;-86
2022/04/17 01:13:42;;;;;;;0.50;0.50;;;0.10;99.90;;;;;;4977943;28;20709;-86
2022/04/17 01:16:07;;;;;;;0.70;0.70;;;0.00;99.90;;;;;;4959981;28;20208;-86
2022/04/17 01:18:54;;;;;;;0.77;0.77;;;-0.10;99.90;;;;;;4976802;28;20200;-87
2022/04/17 01:21:24;;;;;;;0.82;0.82;;;-0.10;99.90;;;;;;4922320;29;20252;-86
2022/04/17 01:29:20;;;;;;;0.60;0.60;;;-0.10;99.90;;;;;;4939185;29;20688;-86
2022/04/17 01:31:46;;;;;;;0.90;0.90;;;-0.20;99.90;;;;;;4935655;29;20205;-86
2022/04/17 01:34:16;;;;;;;0.60;0.60;;;-0.20;99.90;;;;;;4921832;29;20653;-86
2022/04/17 01:36:44;;;;;;;1.08;0.75;;;-0.30;99.90;;;;;;4921776;29;20283;-86
2022/04/17 01:39:10;;;;;;;0.70;0.70;;;-0.30;99.90;;;;;;4939062;29;20549;-86
2022/04/17 01:41:36;;;;;;;0.80;0.80;;;-0.40;99.90;;;;;;4922282;29;20257;-86
2022/04/17 01:44:03;;;;;;;0.60;0.60;;;-0.50;99.90;;;;;;4921861;29;20254;-87
2022/04/17 01:46:29;;;;;;;0.70;0.70;;;-0.50;99.90;;;;;;4921495;29;20205;-86
2022/04/17 01:48:55;;;;;;;0.60;0.60;;;-0.60;99.90;;;;;;4938564;29;20190;-86
2022/04/17 01:51:21;;;;;;;0.60;0.60;;;-0.70;99.90;;;;;;4938451;29;20272;-85
2022/04/17 01:53:47;;;;;;;0.60;0.60;;;-0.70;99.90;;;;;;4949415;29;20668;-87
2022/04/17 01:56:13;;;;;;;0.50;0.50;;;-0.80;99.90;;;;;;4957672;29;20657;-86
2022/04/17 01:58:39;;;;;;;0.68;0.68;;;-0.80;99.90;;;;;;4950379;29;20205;-87
2022/04/17 02:01:05;;;;;;;0.70;0.70;;;-0.90;99.90;;;;;;4945945;28;20219;-86
2022/04/17 02:03:30;;;;;;;0.70;0.70;;;-0.90;99.90;;;;;;4975150;28;20216;-86
2022/04/17 02:05:56;;;;;;;0.70;0.70;;;-1.00;99.90;;;;;;4975801;28;20196;-86
2022/04/17 02:08:22;;;;;;;0.70;0.70;;;-1.00;99.90;;;;;;4976931;28;20279;-86
2022/04/17 02:10:48;;;;;;;0.70;0.70;;;-1.10;99.90;;;;;;4977022;28;20255;-86
2022/04/17 02:13:14;;;;;;;0.70;0.70;;;-1.00;99.90;;;;;;4984385;28;20296;-86
2022/04/17 02:15:40;;;;;;;0.70;0.70;;;-1.00;99.90;;;;;;4988098;28;20675;-86
2022/04/17 02:18:05;;;;;;;0.60;0.60;;;-1.00;99.90;;;;;;4975822;28;20333;-86
2022/04/17 02:20:31;;;;;;;0.77;0.77;;;-1.00;99.90;;;;;;4976520;28;20204;-86
2022/04/17 02:22:57;;;;;;;0.60;0.60;;;-1.00;99.90;;;;;;4975363;28;20208;-86
2022/04/17 02:25:22;;;;;;;0.60;0.60;;;-1.00;99.90;;;;;;4974682;28;20210;-86
2022/04/17 02:27:48;;;;;;;0.70;0.70;;;-1.00;99.90;;;;;;4975949;28;20555;-88
2022/04/17 02:30:14;;;;;;;1.00;1.00;;;-1.10;99.90;;;;;;4959197;28;20251;-86
2022/04/17 02:32:40;;;;;;;0.60;0.60;;;-1.10;99.90;;;;;;4958926;28;20204;-86
2022/04/17 02:35:06;;;;;;;0.80;0.80;;;-1.10;99.90;;;;;;4975160;28;20200;-86
2022/04/17 02:37:35;;;;;;;0.70;0.70;;;-1.20;99.90;;;;;;4974753;28;20544;-86
2022/04/17 02:40:01;;;;;;;0.65;0.65;;;-1.20;99.90;;;;;;4976303;28;20200;-86
2022/04/17 02:42:27;;;;;;;0.70;0.70;;;-1.20;99.90;;;;;;4974956;28;20200;-85
2022/04/17 02:44:53;;;;;;;0.70;0.70;;;-1.30;99.90;;;;;;4958813;28;20250;-86
2022/04/17 02:50:04;;;;;;;0.70;0.70;;;-1.30;99.90;;;;;;4976262;28;20210;-85
2022/04/17 02:52:30;;;;;;;0.70;0.70;;;-1.40;99.90;;;;;;4974706;28;20230;-86
2022/04/17 02:54:55;;;;;;;1.00;1.00;;;-1.40;99.90;;;;;;4959078;28;20196;-86
2022/04/17 02:57:21;;;;;;;0.70;0.70;;;-1.40;99.90;;;;;;4958607;28;20211;-86
2022/04/17 02:59:47;;;;;;;0.60;0.60;;;-1.40;99.90;;;;;;4974965;28;20212;-86
2022/04/17 03:07:40;;;;;;;2.78;1.95;;;-1.60;99.90;;;;;;4956816;29;20203;-85
2022/04/17 03:10:06;;;;;;;0.80;0.80;;;-1.50;99.90;;;;;;4955205;29;20660;-86
2022/04/17 03:12:35;;;;;;;0.93;0.93;;;-1.60;99.90;;;;;;4966955;28;20244;-86
2022/04/17 03:15:01;;;;;;;12.00;3.42;;;-1.60;99.90;;;;;;4958620;28;20620;-86
2022/04/17 03:17:28;;;;;;;0.70;0.70;;;-1.50;99.90;;;;;;4958530;28;20204;-86
2022/04/17 03:19:53;;;;;;;0.70;0.70;;;-1.50;99.90;;;;;;4975556;28;20192;-86
2022/04/17 03:22:23;;;;;;;0.90;0.90;;;-1.50;99.90;;;;;;4958016;28;20207;-85
2022/04/17 03:24:49;;;;;;;0.77;0.77;;;-1.50;99.90;;;;;;4974598;28;20203;-86
2022/04/17 03:27:15;;;;;;;0.80;0.80;;;-1.50;99.90;;;;;;4975385;28;20192;-85
2022/04/17 03:29:40;;;;;;;0.80;0.80;;;-1.60;99.90;;;;;;4957857;28;20283;-85
2022/04/17 03:32:06;;;;;;;0.70;0.70;;;-1.60;99.90;;;;;;4974187;28;20196;-85
2022/04/17 03:34:32;;;;;;;0.70;0.70;;;-1.60;99.90;;;;;;4957934;28;20706;-85
2022/04/17 03:37:00;;;;;;;0.90;0.90;;;-1.70;99.90;;;;;;4974072;28;20235;-86
2022/04/17 03:39:26;;;;;;;0.60;0.60;;;-1.70;99.90;;;;;;4973172;28;20210;-86
2022/04/17 03:41:53;;;;;;;0.70;0.70;;;-1.70;99.90;;;;;;4973606;28;20200;-86
2022/04/17 03:44:19;;;;;;;0.70;0.70;;;-1.70;99.90;;;;;;4973789;28;20216;-85
2022/04/17 03:46:47;;;;;;;0.60;0.60;;;-1.70;99.90;;;;;;4975982;28;20287;-85
2022/04/17 03:49:14;;;;;;;0.70;0.70;;;-1.80;99.90;;;;;;4994245;28;20198;-85
2022/04/17 03:51:39;;;;;;;0.70;0.70;;;-1.80;99.90;;;;;;4977118;28;20298;-86
2022/04/17 03:54:05;;;;;;;0.70;0.70;;;-1.80;99.90;;;;;;4977032;28;20279;-86
2022/04/17 03:56:31;;;;;;;0.70;0.70;;;-1.80;99.90;;;;;;4957756;28;20214;-85
2022/04/17 03:58:56;;;;;;;0.70;0.70;;;-1.80;99.90;;;;;;4958176;28;20243;-85
2022/04/17 04:01:22;;;;;;;0.75;0.75;;;-1.80;99.90;;;;;;4957095;28;20212;-85
2022/04/17 04:03:49;;;;;;;0.80;0.80;;;-1.80;99.90;;;;;;4958225;28;20240;-86
2022/04/17 04:06:16;;;;;;;0.70;0.70;;;-1.80;99.90;;;;;;4957823;28;20309;-85
2022/04/17 04:08:42;;;;;;;0.60;0.60;;;-1.90;99.90;;;;;;4974505;28;20189;-85
2022/04/17 04:11:08;;;;;;;0.80;0.80;;;-1.80;99.90;;;;;;4989580;28;20200;-85
2022/04/17 04:13:34;;;;;;;0.80;0.80;;;-1.80;99.90;;;;;;4957170;28;20236;-86
2022/04/17 04:15:59;;;;;;;0.70;0.70;;;-1.80;99.90;;;;;;4957537;28;20204;-85
2022/04/17 04:18:25;;;;;;;0.80;0.80;;;-1.70;99.90;;;;;;4957163;28;20202;-86
2022/04/17 04:20:51;;;;;;;0.70;0.70;;;-1.70;99.90;;;;;;4974515;28;20290;-86
2022/04/17 04:23:19;;;;;;;0.70;0.70;;;-1.70;99.90;;;;;;4953965;29;20304;-85
2022/04/17 04:25:45;;;;;;;0.80;0.80;;;-1.60;99.90;;;;;;4954105;29;20225;-85
2022/04/17 04:30:55;;;;;;;0.75;0.75;;;-1.40;99.90;;;;;;4955866;28;20686;-86
2022/04/17 04:33:20;;;;;;;0.75;0.75;;;-1.30;99.90;;;;;;4954198;29;20287;-86
2022/04/17 04:35:46;;;;;;;0.70;0.70;;;-1.10;99.90;;;;;;4954122;29;20292;-85
2022/04/17 04:38:12;;;;;;;0.80;0.80;;;-1.10;99.90;;;;;;4954281;29;20197;-85
2022/04/17 04:40:37;;;;;;;0.60;0.60;;;-1.00;99.90;;;;;;4954020;29;20209;-85
2022/04/17 04:43:04;;;;;;;0.60;0.60;;;-0.90;99.90;;;;;;4969613;28;20295;-86
2022/04/17 04:48:14;;;;;;;0.80;0.80;;;-0.80;99.90;;;;;;4955849;28;20311;-85
2022/04/17 04:50:40;;;;;;;0.60;0.60;;;-0.70;99.90;;;;;;4990922;28;20624;-86
2022/04/17 04:53:06;;;;;;;0.80;0.80;;;-0.70;99.90;;;;;;4980523;28;20543;-85
2022/04/17 04:55:32;;;;;;;1.40;1.30;;;-0.50;99.90;;;;;;4996187;28;20210;-85
2022/04/17 04:57:58;;;;;;;0.70;0.70;;;-0.40;99.90;;;;;;4997578;28;20291;-85
2022/04/17 05:00:24;;;;;;;0.70;0.70;;;-0.40;99.90;;;;;;4996115;28;20206;-85
2022/04/17 05:02:50;;;;;;;0.82;0.82;;;-0.30;99.90;;;;;;4995662;28;20219;-85
2022/04/17 05:05:16;;;;;;;0.80;0.80;;;-0.20;99.90;;;;;;4953012;28;20197;-85
2022/04/17 05:07:41;;;;;;;0.60;0.60;;;-0.10;99.90;;;;;;4962751;28;20275;-85
2022/04/17 05:10:07;;;;;;;0.70;0.70;;;0.00;99.90;;;;;;4978017;28;20199;-85
2022/04/17 05:12:33;;;;;;;0.60;0.60;;;0.10;99.90;;;;;;4960316;28;20245;-85
2022/04/17 05:15:00;;;;;;;0.60;0.60;;;0.20;99.90;;;;;;4960732;28;20652;-86
2022/04/17 05:17:25;;;;;;;0.70;0.70;;;0.30;99.90;;;;;;4978101;28;20196;-86
2022/04/17 05:19:51;;;;;;;0.70;0.70;;;0.40;99.90;;;;;;4978154;28;20196;-85
2022/04/17 05:22:17;;;;;;;0.60;0.60;;;0.40;99.90;;;;;;4960255;28;20192;-85
2022/04/17 05:24:44;;;;;;;0.70;0.70;;;0.50;99.90;;;;;;4978033;28;20556;-85
2022/04/17 05:27:10;;;;;;;0.70;0.70;;;0.70;99.90;;;;;;4976315;28;20202;-86
2022/04/17 05:29:36;;;;;;;0.60;0.60;;;0.80;99.90;;;;;;4976433;28;20207;-85
2022/04/17 05:32:02;;;;;;;0.70;0.70;;;0.90;99.90;;;;;;4977402;28;20200;-85
2022/04/17 05:34:28;;;;;;;0.55;0.55;;;0.90;99.90;;;;;;4975422;28;20572;-84
2022/04/17 05:36:53;;;;;;;0.70;0.70;;;1.10;99.90;;;;;;4978152;28;20200;-85
2022/04/17 05:39:19;;;;;;;0.70;0.70;;;1.20;99.90;;;;;;4957937;29;20201;-85
2022/04/17 05:41:45;;;;;;;0.68;0.68;;;1.30;99.90;;;;;;4956905;29;20300;-85
2022/04/17 05:44:12;;;;;;;0.90;0.90;;;1.50;99.90;;;;;;4957686;29;20641;-86
2022/04/17 05:46:41;;;;;;;0.57;0.57;;;1.60;99.90;;;;;;4988553;28;20668;-86
2022/04/17 05:49:07;;;;;;;0.70;0.70;;;1.80;99.90;;;;;;4976000;28;20204;-86
2022/04/17 05:51:34;;;;;;;0.70;0.70;;;2.00;99.90;;;;;;4992476;28;20191;-86
2022/04/17 05:54:02;;;;;;;0.80;0.80;;;2.20;99.90;;;;;;4996597;28;20218;-86
2022/04/17 05:56:28;;;;;;;0.50;0.50;;;2.30;99.90;;;;;;4995288;28;20199;-85
2022/04/17 05:58:54;;;;;;;0.63;0.63;;;2.50;99.90;;;;;;4997117;28;20206;-85
2022/04/17 06:01:20;;;;;;;0.60;0.60;;;2.60;99.90;;;;;;4984003;28;20660;-84
2022/04/17 06:03:45;;;;;;;0.70;0.70;;;2.80;99.90;;;;;;4974811;28;20204;-85
2022/04/17 06:06:13;;;;;;;0.63;0.63;;;2.90;99.90;;;;;;4976799;28;20656;-85
2022/04/17 06:08:39;;;;;;;0.77;0.77;;;3.10;99.90;;;;;;4959023;28;20895;-85
2022/04/17 06:11:05;;;;;;;0.70;0.70;;;3.20;99.90;;;;;;4976546;28;20231;-85
2022/04/17 06:13:31;;;;;;;1.02;1.02;;;3.40;99.90;;;;;;4975164;28;20228;-85
2022/04/17 06:15:56;;;;;;;0.55;0.55;;;3.50;99.90;;;;;;4959479;28;20639;-86
2022/04/17 06:18:22;;;;;;;0.80;0.80;;;3.60;99.90;;;;;;4975184;28;20567;-85
2022/04/17 06:20:47;;;;;;;0.70;0.70;;;3.70;99.90;;;;;;4959413;28;20572;-86
2022/04/17 06:23:13;;;;;;;0.80;0.80;;;3.90;99.90;;;;;;4956065;29;20213;-85
2022/04/17 06:25:39;;;;;;;0.80;0.80;;;4.00;99.90;;;;;;4939753;29;20208;-85
2022/04/17 06:28:05;;;;;;;0.70;0.70;;;4.10;99.90;;;;;;4956101;29;20203;-86
2022/04/17 06:30:30;;;;;;;0.70;0.70;;;4.20;99.90;;;;;;4955283;28;20296;-85
2022/04/17 06:32:56;;;;;;;0.70;0.70;;;4.40;99.90;;;;;;4955758;29;20287;-85
2022/04/17 06:35:22;;;;;;;0.68;0.68;;;4.60;99.90;;;;;;4955540;28;20205;-84
2022/04/17 06:37:55;;;;;;;0.60;0.60;;;4.70;99.90;;;;;;4956674;29;20193;-84
2022/04/17 06:40:23;;;;;;;0.68;0.68;;;4.70;99.90;;;;;;4939797;29;20205;-85
2022/04/17 06:42:51;;;;;;;0.95;0.95;;;5.00;99.90;;;;;;4939272;29;20217;-86
2022/04/17 06:45:18;;;;;;;0.68;0.68;;;5.10;99.90;;;;;;4973951;28;20659;-86
2022/04/17 06:47:44;;;;;;;0.80;0.80;;;5.30;99.90;;;;;;4959066;28;20564;-86
2022/04/17 06:50:11;;;;;;;0.70;0.70;;;5.40;99.90;;;;;;4976651;28;20223;-87
2022/04/17 06:52:37;;;;;;;1.30;1.00;;;5.50;99.90;;;;;;4958901;28;20283;-87
2022/04/17 06:55:04;;;;;;;0.70;0.70;;;5.70;99.90;;;;;;4959090;28;20287;-86
2022/04/17 06:57:31;;;;;;;0.75;0.75;;;5.70;99.90;;;;;;4986303;28;20203;-87
2022/04/17 06:59:58;;;;;;;0.70;0.70;;;5.80;99.90;;;;;;4991815;28;20283;-86
2022/04/17 07:02:24;;;;;;;0.65;0.65;;;6.00;99.90;;;;;;4975895;28;20196;-86
2022/04/17 07:04:50;;;;;;;0.70;0.70;;;6.10;99.90;;;;;;4976348;28;20578;-85
2022/04/17 07:07:16;;;;;;;0.70;0.70;;;6.30;99.90;;;;;;4957626;28;20196;-86
2022/04/17 07:09:44;;;;;;;0.63;0.63;;;6.40;99.90;;;;;;4957415;28;20537;-85
2022/04/17 07:12:10;;;;;;;0.70;0.70;;;6.50;99.90;;;;;;4957401;28;20207;-85
2022/04/17 07:14:36;;;;;;;0.70;0.70;;;6.70;99.90;;;;;;4974901;28;20189;-86
2022/04/17 07:17:02;;;;;;;0.60;0.60;;;6.80;99.90;;;;;;4958342;28;20287;-87
2022/04/17 07:19:27;;;;;;;0.57;0.57;;;7.00;99.90;;;;;;4973803;28;20256;-87
2022/04/17 07:21:56;;;;;;;0.70;0.70;;;7.20;99.90;;;;;;4975718;28;20275;-86
2022/04/17 07:24:24;;;;;;;0.77;0.77;;;7.30;99.90;;;;;;4941181;29;20216;-86
2022/04/17 07:26:53;;;;;;;0.80;0.80;;;7.50;99.90;;;;;;4956737;28;20675;-87
2022/04/17 07:29:22;;;;;;;0.60;0.60;;;7.70;99.90;;;;;;4939372;29;20201;-87
2022/04/17 07:31:49;;;;;;;0.70;0.70;;;7.90;99.90;;;;;;4958318;28;20580;-87
2022/04/17 07:34:16;;;;;;;0.70;0.70;;;8.10;99.90;;;;;;4958638;28;20714;-87
2022/04/17 07:36:41;;;;;;;0.95;0.95;;;8.20;99.90;;;;;;4974304;28;20197;-87
2022/04/17 07:39:07;;;;;;;0.70;0.70;;;8.20;99.90;;;;;;4958703;28;20572;-86
2022/04/17 07:41:33;;;;;;;0.63;0.63;;;8.30;99.90;;;;;;4958814;28;20204;-86
2022/04/17 07:43:59;;;;;;;0.70;0.70;;;8.50;99.90;;;;;;4958650;28;20216;-87
2022/04/17 07:46:25;;;;;;;0.70;0.70;;;8.80;99.90;;;;;;4957848;28;20581;-87
2022/04/17 07:48:51;;;;;;;0.70;0.70;;;9.00;99.90;;;;;;4958106;28;20258;-87
2022/04/17 07:51:17;;;;;;;0.60;0.60;;;9.20;99.90;;;;;;4975473;28;20623;-87
2022/04/17 07:53:42;;;;;;;0.70;0.70;;;9.30;99.90;;;;;;4973928;28;20204;-86
2022/04/17 07:56:10;;;;;;;0.60;0.60;;;9.40;99.90;;;;;;4973390;28;20282;-87
2022/04/17 07:58:37;;;;;;;0.82;0.75;;;9.60;99.90;;;;;;4957961;28;20214;-87
2022/04/17 08:01:14;;;;;;;0.70;0.70;;;9.80;99.90;;;;;;4958057;28;20251;-86
2022/04/17 08:06:06;;;;;;;0.60;0.60;;;10.00;99.90;;;;;;4975991;28;20667;-86
2022/04/17 08:08:33;;;;;;;40.85;1.67;;;10.30;99.90;;;;;;4958436;28;20679;-86
2022/04/17 08:10:59;;;;;;;0.60;0.60;;;10.60;99.90;;;;;;4975310;28;20675;-87
2022/04/17 08:13:24;;;;;;;0.70;0.70;;;10.70;99.90;;;;;;4947859;29;20243;-86
2022/04/17 08:15:52;;;;;;;0.60;0.60;;;10.90;99.90;;;;;;4938324;29;20212;-83
2022/04/17 08:18:18;;;;;;;0.68;0.68;;;11.70;99.90;;;;;;4938217;29;20201;-84
2022/04/17 08:20:44;;;;;;;0.43;0.43;;;12.50;99.90;;;;;;4955287;28;20201;-80
2022/04/17 08:23:10;;;;;;;0.68;0.68;;;13.40;99.90;;;;;;4955322;29;20216;-82
2022/04/17 08:25:36;;;;;;;0.50;0.50;;;14.10;99.90;;;;;;4953957;28;20625;-80
2022/04/17 08:28:03;;;;;;;0.50;0.50;;;14.30;99.90;;;;;;4958817;29;20223;-85
2022/04/17 08:30:30;;;;;;;0.60;0.60;;;14.70;99.90;;;;;;4958767;28;20561;-82
2022/04/17 08:32:57;;;;;;;0.60;0.60;;;14.80;99.90;;;;;;4941462;29;20665;-82
2022/04/17 08:35:23;;;;;;;0.40;0.40;;;14.90;99.90;;;;;;4958858;29;20735;-84
2022/04/17 08:37:50;;;;;;;0.40;0.40;;;15.10;99.90;;;;;;4941602;29;20291;-81
2022/04/17 08:40:16;;;;;;;0.30;0.30;;;15.10;98.50;;;;;;4941891;29;20209;-81
2022/04/17 08:42:44;;;;;;;0.30;0.30;;;14.80;97.60;;;;;;4970678;28;20219;-85
2022/04/17 08:45:11;;;;;;;0.40;0.40;;;14.60;99.90;;;;;;4960171;29;20196;-79
2022/04/17 08:47:41;;;;;;;0.40;0.40;;;14.70;99.90;;;;;;4956774;29;20193;-78
2022/04/17 08:50:12;;;;;;;0.50;0.50;;;15.20;98.80;;;;;;4957807;29;20408;-78
2022/04/17 08:52:39;;;;;;;0.50;0.50;;;15.40;98.40;;;;;;4941007;29;20412;-88
2022/04/17 08:55:06;;;;;;;0.40;0.40;;;15.40;97.00;;;;;;4941016;29;20197;-79
2022/04/17 08:57:31;;;;;;;0.47;0.47;;;15.50;97.50;;;;;;4958680;28;20255;-77
2022/04/17 08:59:58;;;;;;;0.43;0.43;;;16.00;95.90;;;;;;4958306;29;20605;-77
2022/04/17 09:02:24;;;;;;;0.38;0.38;;;15.80;96.10;;;;;;4958232;29;20193;-77
2022/04/17 09:04:50;;;;;;;0.40;0.40;;;16.00;95.90;;;;;;4941516;29;20252;-78
2022/04/17 09:07:16;;;;;;;0.40;0.40;;;15.70;94.40;;;;;;4941519;29;20209;-77
2022/04/17 09:09:50;;;;;;;0.40;0.40;;;15.30;94.80;;;;;;4939735;29;20765;-78
2022/04/17 09:12:20;;;;;;;0.50;0.50;;;15.60;96.80;;;;;;4956901;28;20987;-77
2022/04/17 09:14:47;;;;;;;0.40;0.40;;;16.10;94.30;;;;;;4974708;28;20768;-77
2022/04/17 09:17:12;;;;;;;0.40;0.40;;;16.10;95.40;;;;;;4990715;28;20771;-78
2022/04/17 09:19:39;;;;;;;0.40;0.40;;;16.90;94.30;;;;;;4976428;28;20426;-78
2022/04/17 09:22:06;;;;;;;0.75;0.70;;;17.50;93.60;;;;;;4989738;28;20207;-77
2022/04/17 09:24:36;;;;;;;0.47;0.47;;;18.20;92.00;;;;;;4957274;29;20671;-80
2022/04/17 09:27:03;;;;;;;0.57;0.57;;;18.00;88.50;;;;;;4958257;29;20224;-86
2022/04/17 09:29:36;;;;;;;1.08;0.70;;;17.40;91.50;;;;;;4958264;29;20575;-87
2022/04/17 09:32:09;;;;;;;0.30;0.30;;;17.40;89.90;;;;;;4958006;28;20192;-84
2022/04/17 09:34:52;;;;;;;0.50;0.50;;;17.20;88.80;;;;;;4957425;29;20243;-77
2022/04/17 09:37:22;;;;;;;0.40;0.40;;;16.60;91.40;;;;;;4959283;28;20200;-77
2022/04/17 09:39:49;;;;;;;0.40;0.40;;;17.10;91.70;;;;;;4974554;28;20196;-81
2022/04/17 09:42:26;;;;;;;0.30;0.30;;;17.60;91.60;;;;;;4974836;28;20207;-80
2022/04/17 09:44:55;;;;;;;1.10;0.55;;;18.00;90.80;;;;;;4976274;28;20230;-77
2022/04/17 09:47:28;;;;;;;0.38;0.38;;;17.90;85.80;;;;;;4995403;28;20195;-77
2022/04/17 09:49:56;;;;;;;0.40;0.40;;;17.80;88.00;;;;;;4982089;28;20262;-76
2022/04/17 09:52:23;;;;;;;1.80;0.93;;;17.50;86.10;;;;;;4958395;28;20567;-78
2022/04/17 09:54:50;;;;;;;0.35;0.35;;;17.20;90.40;;;;;;4958473;28;20204;-76
2022/04/17 09:57:36;;;;;;;0.50;0.50;;;17.40;86.50;;;;;;4958500;28;20231;-76
2022/04/17 10:00:16;;;;;;;0.50;0.50;;;16.80;87.80;;;;;;4977474;28;20204;-78
2022/04/17 10:02:45;;;;;;;0.50;0.50;;;16.80;92.10;;;;;;4959919;28;20600;-76
2022/04/17 10:05:20;;;;;;;0.40;0.40;;;16.80;89.30;;;;;;4975769;28;20197;-76
2022/04/17 10:08:10;;;;;;;0.40;0.40;;;17.10;90.50;;;;;;4960204;28;20565;-77
2022/04/17 10:10:55;;;;;;;0.47;0.47;;;17.20;90.40;;;;;;4978669;28;20683;-76
2022/04/17 10:13:22;;;;;;;0.60;0.60;;;17.30;90.00;;;;;;4978113;28;20683;-77
2022/04/17 10:15:49;;;;;;;0.40;0.40;;;17.10;86.60;;;;;;4976070;28;20204;-77
2022/04/17 10:18:17;;;;;;;0.40;0.40;;;17.50;90.10;;;;;;4976033;28;20239;-77
2022/04/17 10:20:44;;;;;;;0.50;0.50;;;18.20;90.60;;;;;;4974095;28;20246;-76
2022/04/17 10:23:13;;;;;;;0.30;0.30;;;19.10;89.20;;;;;;4975425;28;20725;-78
2022/04/17 10:25:42;;;;;;;0.40;0.40;;;19.70;79.20;;;;;;4974188;28;20288;-77
2022/04/17 10:28:09;;;;;;;0.20;0.20;;;19.70;80.10;;;;;;4974642;28;20262;-77
2022/04/17 10:31:20;;;;;;;0.20;0.20;;;19.80;79.60;;;;;;4974192;28;20193;-77
2022/04/17 10:33:46;;;;;;;0.38;0.38;;;20.30;79.20;;;;;;4975372;28;20671;-76
2022/04/17 10:36:29;;;;;;;0.20;0.20;;;20.50;74.80;;;;;;4990941;28;20294;-77
2022/04/17 10:39:20;;;;;;;0.30;0.30;;;19.60;79.70;;;;;;4990283;28;20200;-76
2022/04/17 10:41:46;;;;;;;0.55;0.55;;;19.80;75.00;;;;;;4975465;28;20231;-76
2022/04/17 10:44:12;;;;;;;0.20;0.20;;;19.90;79.80;;;;;;4975059;28;20239;-77
2022/04/17 10:46:52;;;;;;;0.43;0.40;;;20.50;81.60;;;;;;4974226;28;20207;-76
2022/04/17 10:49:19;;;;;;;0.40;0.40;;;21.10;78.00;;;;;;4974888;28;20413;-77
2022/04/17 10:51:59;;;;;;;0.63;0.40;;;21.00;77.10;;;;;;4958293;28;20200;-78
2022/04/17 10:54:45;;;;;;;0.30;0.30;;;21.40;74.30;;;;;;4957106;28;20415;-80
2022/04/17 10:57:11;;;;;;;0.47;0.47;;;20.80;73.50;;;;;;4975045;28;20895;-78
2022/04/17 10:59:37;;;;;;;0.30;0.30;;;21.40;76.90;;;;;;4957944;28;20232;-81
2022/04/17 11:02:10;;;;;;;0.20;0.20;;;21.70;72.60;;;;;;4974094;28;20667;-77
2022/04/17 11:04:55;;;;;;;0.43;0.35;;;21.70;73.30;;;;;;4974032;28;20745;-79
2022/04/17 11:07:21;;;;;;;4.57;0.57;;;21.70;72.30;;;;;;4973839;28;20231;-81
2022/04/17 11:09:47;;;;;;;0.20;0.20;;;21.40;69.10;;;;;;4975340;28;20184;-78
2022/04/17 11:12:18;;;;;;;0.28;0.28;;;21.10;72.00;;;;;;4958715;28;20287;-87
2022/04/17 11:15:14;;;;;;;0.43;0.38;;;21.10;72.70;;;;;;4973825;28;22493;-88
2022/04/17 11:17:42;;;;;;;0.40;0.40;;;20.90;74.20;;;;;;4973873;28;20211;-76
2022/04/17 11:20:09;;;;;;;0.30;0.30;;;20.70;70.10;;;;;;4957806;28;20204;-77
2022/04/17 11:22:36;;;;;;;0.30;0.30;;;21.10;75.20;;;;;;4974887;28;20287;-76
2022/04/17 11:25:12;;;;;;;0.50;0.50;;;21.00;75.70;;;;;;4973833;28;20408;-74
2022/04/17 11:28:02;;;;;;;0.68;0.60;;;20.50;71.60;;;;;;4973905;28;20231;-78
2022/04/17 11:30:27;;;;;;;0.32;0.32;;;20.20;74.80;;;;;;4969100;28;20204;-80
2022/04/17 11:32:54;;;;;;;0.30;0.30;;;20.80;75.90;;;;;;4957903;28;20679;-82
2022/04/17 11:35:24;;;;;;;0.30;0.30;;;21.30;73.60;;;;;;4975052;28;20196;-83
2022/04/17 11:37:52;;;;;;;0.20;0.20;;;21.60;73.00;;;;;;4973508;28;20204;-78
2022/04/17 11:40:20;;;;;;;0.20;0.20;;;21.60;72.00;;;;;;4957520;28;20211;-80
2022/04/17 11:42:48;;;;;;;0.52;0.50;;;21.50;71.80;;;;;;4974568;28;20208;-77
2022/04/17 11:45:25;;;;;;;0.30;0.30;;;21.50;72.80;;;;;;4975057;28;20188;-89
2022/04/17 11:47:53;;;;;;;0.60;0.50;;;21.10;71.50;;;;;;4974277;28;20400;-85
2022/04/17 11:50:21;;;;;;;0.20;0.20;;;20.30;69.90;;;;;;4973097;28;20196;-78
2022/04/17 11:52:51;;;;;;;0.50;0.50;;;20.00;73.00;;;;;;4974955;28;20398;-78
2022/04/17 11:55:22;;;;;;;0.30;0.30;;;20.50;75.20;;;;;;4956951;28;20415;-87
2022/04/17 11:57:48;;;;;;;2.38;0.70;;;20.80;72.80;;;;;;4955703;28;20415;-86
2022/04/17 12:00:14;;;;;;;0.30;0.30;;;20.00;72.50;;;;;;4974302;28;20207;-85
2022/04/17 12:02:39;;;;;;;0.45;0.45;;;20.30;74.30;;;;;;4973851;28;20204;-87
2022/04/17 12:05:12;;;;;;;51.40;2.17;;;20.20;69.90;;;;;;4957602;28;20263;-81
2022/04/17 12:07:38;;;;;;;0.40;0.40;;;20.40;74.60;;;;;;4957322;28;20254;-82
2022/04/17 12:10:14;;;;;;;1.00;0.70;;;21.40;71.90;;;;;;4956910;28;20412;-80
2022/04/17 12:12:41;;;;;;;0.32;0.32;;;21.90;70.60;;;;;;4974472;28;20420;-81
2022/04/17 12:15:10;;;;;;;3.65;1.55;;;22.20;66.60;;;;;;4956851;28;20239;-81
2022/04/17 12:17:36;;;;;;;2.47;0.77;;;21.90;70.20;;;;;;4972327;28;20214;-78
2022/04/17 12:20:09;;;;;;;0.30;0.30;;;21.40;70.80;;;;;;4972396;28;20211;-76
2022/04/17 12:22:36;;;;;;;1.20;0.40;;;21.80;70.40;;;;;;4947228;29;20691;-78
2022/04/17 12:25:05;;;;;;;0.50;0.50;;;21.70;69.70;;;;;;4933976;29;20198;-80
2022/04/17 12:27:31;;;;;;;1.05;0.52;;;21.50;68.60;;;;;;4948232;29;20201;-79
2022/04/17 12:30:02;;;;;;;0.45;0.38;;;20.40;67.10;;;;;;4955019;29;20668;-82
2022/04/17 12:32:27;;;;;;;0.35;0.35;;;20.20;70.00;;;;;;4955230;29;20315;-81
2022/04/17 12:35:03;;;;;;;0.20;0.20;;;20.40;70.40;;;;;;4962453;28;20201;-77
2022/04/17 12:37:32;;;;;;;0.28;0.28;;;20.50;68.00;;;;;;4937542;29;20255;-77
2022/04/17 12:40:21;;;;;;;0.75;0.65;;;20.50;71.20;;;;;;4953669;28;20648;-78
2022/04/17 12:42:48;;;;;;;0.20;0.20;;;21.10;66.90;;;;;;4954926;29;20199;-78
2022/04/17 12:45:32;;;;;;;0.20;0.20;;;21.20;68.50;;;;;;4955202;29;20280;-79
2022/04/17 12:48:07;;;;;;;0.20;0.20;;;21.60;65.60;;;;;;4955006;29;20196;-80
2022/04/17 12:50:33;;;;;;;0.30;0.30;;;21.50;65.40;;;;;;4937585;28;20196;-79
2022/04/17 12:53:01;;;;;;;1.13;0.70;;;21.40;65.90;;;;;;4953077;28;20718;-78
2022/04/17 12:55:35;;;;;;;0.20;0.20;;;21.40;63.00;;;;;;4954554;29;20221;-77
2022/04/17 12:58:02;;;;;;;0.20;0.20;;;20.90;67.80;;;;;;4955194;29;20204;-80
2022/04/17 13:00:30;;;;;;;0.30;0.30;;;21.40;67.10;;;;;;4953895;29;20581;-77
2022/04/17 13:03:13;;;;;;;0.20;0.20;;;21.20;58.80;;;;;;4954727;29;20734;-77
2022/04/17 13:05:39;;;;;;;0.43;0.43;;;21.00;66.00;;;;;;4953391;29;20208;-76
2022/04/17 13:08:09;;;;;;;0.28;0.28;;;20.90;59.00;;;;;;4943811;29;20253;-77
2022/04/17 13:10:36;;;;;;;0.22;0.22;;;20.30;63.00;;;;;;4935233;29;20198;-76
2022/04/17 13:13:02;;;;;;;0.28;0.28;;;19.90;62.80;;;;;;4937549;29;20236;-77
2022/04/17 13:15:30;;;;;;;0.20;0.20;;;19.20;61.50;;;;;;4956454;29;20599;-76